Time;durP1;ratioP1;P1;durP2;ratioP2;P2;SDS_P1;SDS_P2;PMS_P1;PMS_P2;Temp;Humidity;BMP_temperature;BMP_pressure;BME280_temperature;BME280_humidity;BME280_pressure;Samples;Min_cycle;Max_cycle;Signal;HPM_P1;HPM_P2
2023/04/29 00:01:28;;;;;;;15.30;7.30;;;;;;;;;;107000;1256;24640;-82
2023/04/29 00:03:55;;;;;;;14.10;7.00;;;;;;;;;;107034;1275;22758;-81
2023/04/29 00:06:22;;;;;;;14.20;7.20;;;;;;;;;;107030;1275;24237;-82
2023/04/29 00:08:51;;;;;;;16.10;7.20;;;;;;;;;;107036;1275;24244;-81
2023/04/29 00:11:20;;;;;;;14.60;7.10;;;;;;;;;;107107;1258;22599;-81
2023/04/29 00:13:47;;;;;;;19.20;7.50;;;;;;;;;;106899;1275;24167;-81
2023/04/29 00:16:17;;;;;;;15.00;7.40;;;;;;;;;;106990;1275;24360;-78
2023/04/29 00:18:44;;;;;;;14.70;7.30;;;;;;;;;;107028;1275;22517;-77
2023/04/29 00:21:10;;;;;;;15.80;7.40;;;;;;;;;;106875;1257;22665;-84
2023/04/29 00:23:40;;;;;;;15.00;7.00;;;;;;;;;;106897;1275;22736;-83
2023/04/29 00:26:07;;;;;;;17.80;7.30;;;;;;;;;;106898;1275;24718;-80
2023/04/29 00:28:34;;;;;;;16.20;7.10;;;;;;;;;;106886;1275;22662;-81
2023/04/29 00:31:01;;;;;;;16.70;7.50;;;;;;;;;;107102;1275;24216;-77
2023/04/29 00:33:27;;;;;;;15.20;6.90;;;;;;;;;;107035;1275;22578;-76
2023/04/29 00:35:55;;;;;;;14.80;7.10;;;;;;;;;;106837;1275;22527;-91
2023/04/29 00:38:25;;;;;;;17.60;8.10;;;;;;;;;;107110;1275;23153;-81
2023/04/29 00:40:52;;;;;;;20.30;7.70;;;;;;;;;;106818;1275;24172;-76
2023/04/29 00:43:19;;;;;;;16.40;7.50;;;;;;;;;;106797;1267;25344;-77
2023/04/29 00:45:46;;;;;;;14.70;7.20;;;;;;;;;;106923;1275;24221;-77
2023/04/29 00:48:14;;;;;;;17.40;7.00;;;;;;;;;;107019;1275;22520;-81
2023/04/29 00:50:50;;;;;;;18.00;7.60;;;;;;;;;;106910;1275;25271;-83
2023/04/29 00:53:17;;;;;;;16.60;7.90;;;;;;;;;;107086;1263;24187;-81
2023/04/29 00:55:45;;;;;;;15.70;7.20;;;;;;;;;;106886;1275;24190;-79
2023/04/29 00:58:12;;;;;;;15.80;7.00;;;;;;;;;;107155;1275;22551;-83
2023/04/29 01:00:40;;;;;;;11.40;6.00;;;;;;;;;;106925;1275;24362;-83
2023/04/29 01:03:08;;;;;;;13.00;6.80;;;;;;;;;;107053;1267;22517;-83
2023/04/29 01:05:35;;;;;;;15.10;6.80;;;;;;;;;;107153;1275;22514;-78
2023/04/29 01:08:11;;;;;;;14.30;6.80;;;;;;;;;;107035;1275;22477;-82
2023/04/29 01:10:50;;;;;;;14.10;6.70;;;;;;;;;;107027;1275;25334;-80
2023/04/29 01:13:28;;;;;;;15.50;7.20;;;;;;;;;;106982;1268;23998;-80
2023/04/29 01:16:02;;;;;;;13.80;6.60;;;;;;;;;;106898;1275;25503;-80
2023/04/29 01:18:40;;;;;;;14.80;6.30;;;;;;;;;;106949;1275;25362;-81
2023/04/29 01:21:07;;;;;;;14.30;6.70;;;;;;;;;;106901;1275;22524;-83
2023/04/29 01:23:37;;;;;;;12.10;6.30;;;;;;;;;;107018;1257;22595;-78
2023/04/29 01:26:04;;;;;;;11.70;6.80;;;;;;;;;;107147;1272;22539;-79
2023/04/29 01:28:55;;;;;;;12.40;6.80;;;;;;;;;;106891;1275;22640;-78
2023/04/29 01:31:52;;;;;;;12.80;6.20;;;;;;;;;;107036;1275;24252;-83
2023/04/29 01:34:24;;;;;;;15.00;6.40;;;;;;;;;;106955;1270;25280;-80
2023/04/29 01:36:51;;;;;;;15.60;6.40;;;;;;;;;;107036;1272;25338;-81
2023/04/29 01:39:30;;;;;;;11.90;6.40;;;;;;;;;;107139;1275;22544;-83
2023/04/29 01:42:13;;;;;;;11.30;6.60;;;;;;;;;;107057;1275;24196;-80
2023/04/29 01:44:42;;;;;;;15.80;6.60;;;;;;;;;;106934;1275;22545;-82
2023/04/29 01:47:12;;;;;;;15.50;7.50;;;;;;;;;;106884;1275;22537;-82
2023/04/29 01:49:45;;;;;;;12.80;6.80;;;;;;;;;;107067;1275;25334;-77
2023/04/29 01:52:14;;;;;;;14.90;6.90;;;;;;;;;;107119;1275;24193;-83
2023/04/29 01:54:52;;;;;;;13.50;6.70;;;;;;;;;;107130;1258;24289;-82
2023/04/29 01:57:23;;;;;;;14.10;7.00;;;;;;;;;;106932;1274;25326;-81
2023/04/29 01:59:58;;;;;;;13.60;7.30;;;;;;;;;;107096;1274;22663;-80
2023/04/29 02:02:41;;;;;;;14.40;6.10;;;;;;;;;;107164;1274;22765;-78
2023/04/29 02:05:16;;;;;;;13.00;6.20;;;;;;;;;;107106;1257;22514;-76
2023/04/29 02:08:06;;;;;;;12.40;6.10;;;;;;;;;;106865;1274;22527;-80
2023/04/29 02:10:36;;;;;;;13.30;6.80;;;;;;;;;;106832;1274;25305;-78
2023/04/29 02:13:21;;;;;;;12.70;6.40;;;;;;;;;;107106;1251;22556;-80
2023/04/29 02:15:51;;;;;;;13.50;6.70;;;;;;;;;;106936;1274;24275;-81
2023/04/29 02:18:18;;;;;;;13.60;6.70;;;;;;;;;;106894;1274;25534;-81
2023/04/29 02:20:49;;;;;;;12.40;6.50;;;;;;;;;;107086;1274;22541;-81
2023/04/29 02:23:16;;;;;;;13.20;6.60;;;;;;;;;;107162;1274;22852;-77
2023/04/29 02:25:43;;;;;;;16.70;7.70;;;;;;;;;;107127;1257;22482;-84
2023/04/29 02:28:10;;;;;;;12.80;6.80;;;;;;;;;;106953;1274;24253;-83
2023/04/29 02:30:40;;;;;;;13.60;7.00;;;;;;;;;;107194;1274;25383;-81
2023/04/29 02:33:06;;;;;;;12.40;6.30;;;;;;;;;;107125;1254;22525;-76
2023/04/29 02:35:33;;;;;;;13.40;7.10;;;;;;;;;;106869;1260;24242;-81
2023/04/29 02:38:03;;;;;;;15.60;6.80;;;;;;;;;;107140;1274;22663;-80
2023/04/29 02:40:29;;;;;;;13.40;6.50;;;;;;;;;;107095;1274;23368;-81
2023/04/29 02:42:56;;;;;;;10.70;6.70;;;;;;;;;;106908;1274;24387;-83
2023/04/29 02:45:23;;;;;;;13.90;6.80;;;;;;;;;;107091;1256;22589;-84
2023/04/29 02:47:52;;;;;;;16.20;6.70;;;;;;;;;;107125;1274;22514;-83
2023/04/29 02:50:39;;;;;;;16.50;7.90;;;;;;;;;;107127;1264;25389;-78
2023/04/29 02:53:06;;;;;;;20.80;10.20;;;;;;;;;;106925;1274;23904;-77
2023/04/29 02:55:36;;;;;;;20.50;10.10;;;;;;;;;;106834;1274;25315;-76
2023/04/29 02:58:08;;;;;;;21.60;10.20;;;;;;;;;;106922;1274;25334;-79
2023/04/29 03:00:37;;;;;;;17.00;7.90;;;;;;;;;;107094;1251;25456;-77
2023/04/29 03:03:06;;;;;;;14.60;7.20;;;;;;;;;;107133;1274;24183;-81
2023/04/29 03:05:34;;;;;;;14.00;7.10;;;;;;;;;;107115;1266;22599;-83
2023/04/29 03:08:02;;;;;;;13.50;7.20;;;;;;;;;;107109;1274;22530;-81
2023/04/29 03:10:30;;;;;;;14.30;7.60;;;;;;;;;;107125;1274;25407;-76
2023/04/29 03:12:59;;;;;;;15.10;7.30;;;;;;;;;;107126;1274;26480;-77
2023/04/29 03:15:30;;;;;;;15.80;8.00;;;;;;;;;;107096;1258;22529;-82
2023/04/29 03:18:00;;;;;;;15.10;8.30;;;;;;;;;;107102;1274;23905;-76
2023/04/29 03:20:28;;;;;;;17.40;8.20;;;;;;;;;;106783;1274;25443;-78
2023/04/29 03:22:55;;;;;;;15.40;7.60;;;;;;;;;;107127;1274;22520;-84
2023/04/29 03:25:22;;;;;;;14.10;7.00;;;;;;;;;;106903;1260;25340;-80
2023/04/29 03:27:50;;;;;;;14.90;7.50;;;;;;;;;;107129;1274;22666;-78
2023/04/29 03:30:17;;;;;;;15.70;7.30;;;;;;;;;;107147;1274;25309;-78
2023/04/29 03:32:48;;;;;;;12.60;7.40;;;;;;;;;;107094;1274;25262;-78
2023/04/29 03:35:15;;;;;;;17.80;8.10;;;;;;;;;;106888;1254;25220;-80
2023/04/29 03:37:49;;;;;;;14.60;8.00;;;;;;;;;;106862;1274;22563;-77
2023/04/29 03:40:35;;;;;;;15.40;8.10;;;;;;;;;;106924;1274;25421;-80
2023/04/29 03:43:02;;;;;;;15.00;7.80;;;;;;;;;;106903;1274;25758;-80
2023/04/29 03:45:29;;;;;;;15.20;7.80;;;;;;;;;;106923;1274;25278;-84
2023/04/29 03:47:56;;;;;;;14.40;7.80;;;;;;;;;;106933;1274;22524;-76
2023/04/29 03:50:23;;;;;;;13.90;7.90;;;;;;;;;;107107;1274;25223;-81
2023/04/29 03:52:49;;;;;;;17.10;8.40;;;;;;;;;;107123;1274;22528;-78
2023/04/29 03:55:17;;;;;;;14.90;8.50;;;;;;;;;;106865;1251;23634;-81
2023/04/29 03:57:44;;;;;;;16.70;7.80;;;;;;;;;;106880;1274;24193;-83
2023/04/29 04:00:11;;;;;;;14.30;7.80;;;;;;;;;;106870;1267;22629;-81
2023/04/29 04:02:44;;;;;;;15.40;8.20;;;;;;;;;;107161;1274;25945;-77
2023/04/29 04:05:11;;;;;;;14.10;7.00;;;;;;;;;;107150;1251;22527;-81
2023/04/29 04:07:40;;;;;;;13.40;7.30;;;;;;;;;;106889;1258;24266;-80
2023/04/29 04:10:27;;;;;;;13.70;7.40;;;;;;;;;;107108;1274;23859;-78
2023/04/29 04:12:54;;;;;;;12.30;6.90;;;;;;;;;;107151;1274;26593;-79
2023/04/29 04:15:21;;;;;;;17.70;7.20;;;;;;;;;;106898;1274;25315;-80
2023/04/29 04:17:48;;;;;;;15.80;7.30;;;;;;;;;;106935;1274;24484;-78
2023/04/29 04:20:14;;;;;;;13.70;7.50;;;;;;;;;;106895;1274;24232;-83
2023/04/29 04:22:42;;;;;;;14.40;7.10;;;;;;;;;;106923;1274;22761;-80
2023/04/29 04:25:15;;;;;;;14.30;6.90;;;;;;;;;;107131;1274;23917;-78
2023/04/29 04:28:04;;;;;;;13.20;7.40;;;;;;;;;;106860;1254;22614;-82
2023/04/29 04:30:52;;;;;;;17.20;7.00;;;;;;;;;;107117;1274;22622;-76
2023/04/29 04:33:19;;;;;;;16.00;7.30;;;;;;;;;;106900;1274;22520;-83
2023/04/29 04:35:46;;;;;;;15.40;7.40;;;;;;;;;;107116;1274;22606;-84
2023/04/29 04:38:33;;;;;;;18.00;7.50;;;;;;;;;;107093;1257;25330;-80
2023/04/29 04:41:05;;;;;;;15.00;7.30;;;;;;;;;;107136;1270;24020;-81
2023/04/29 04:43:35;;;;;;;14.50;6.90;;;;;;;;;;106932;1274;25278;-77
2023/04/29 04:46:15;;;;;;;12.90;6.80;;;;;;;;;;107127;1274;22615;-81
2023/04/29 04:49:01;;;;;;;14.90;7.50;;;;;;;;;;107129;1274;25327;-76
2023/04/29 04:51:28;;;;;;;21.60;7.90;;;;;;;;;;106915;1274;23295;-78
2023/04/29 04:53:55;;;;;;;15.10;7.70;;;;;;;;;;107103;1274;22524;-79
2023/04/29 04:56:23;;;;;;;17.60;8.80;;;;;;;;;;107176;1274;23870;-82
2023/04/29 04:58:54;;;;;;;19.80;9.70;;;;;;;;;;106906;1257;24215;-81
2023/04/29 05:01:20;;;;;;;20.80;9.50;;;;;;;;;;107133;1274;22516;-80
2023/04/29 05:03:50;;;;;;;18.00;9.20;;;;;;;;;;107032;1274;22855;-80
2023/04/29 05:06:17;;;;;;;16.40;8.90;;;;;;;;;;106937;1274;25265;-77
2023/04/29 05:08:45;;;;;;;19.10;8.80;;;;;;;;;;107114;1256;25396;-75
2023/04/29 05:11:17;;;;;;;15.20;8.00;;;;;;;;;;106858;1274;24222;-83
2023/04/29 05:13:45;;;;;;;14.80;7.20;;;;;;;;;;107085;1274;25454;-79
2023/04/29 05:16:12;;;;;;;16.30;7.70;;;;;;;;;;106909;1266;25223;-77
2023/04/29 05:18:45;;;;;;;19.30;7.80;;;;;;;;;;107081;1254;22552;-83
2023/04/29 05:21:20;;;;;;;17.30;9.10;;;;;;;;;;107140;1274;25277;-80
2023/04/29 05:23:47;;;;;;;16.70;8.00;;;;;;;;;;107103;1252;22531;-78
2023/04/29 05:26:13;;;;;;;16.50;9.70;;;;;;;;;;107152;1273;22983;-84
2023/04/29 05:28:41;;;;;;;17.90;10.00;;;;;;;;;;107238;1257;25373;-80
2023/04/29 05:31:08;;;;;;;18.80;9.80;;;;;;;;;;106929;1274;22523;-81
2023/04/29 05:33:35;;;;;;;23.50;10.10;;;;;;;;;;107155;1274;25335;-80
2023/04/29 05:36:05;;;;;;;22.80;10.60;;;;;;;;;;107160;1274;22531;-79
2023/04/29 05:38:35;;;;;;;18.20;9.50;;;;;;;;;;107136;1274;24255;-83
2023/04/29 05:41:07;;;;;;;19.10;9.80;;;;;;;;;;107161;1274;25550;-77
2023/04/29 05:44:06;;;;;;;19.20;9.90;;;;;;;;;;107053;1274;22527;-79
2023/04/29 05:46:33;;;;;;;19.20;10.20;;;;;;;;;;106906;1274;25414;-81
2023/04/29 05:49:03;;;;;;;18.20;9.70;;;;;;;;;;106889;1258;23928;-84
2023/04/29 05:51:30;;;;;;;20.40;10.20;;;;;;;;;;107123;1274;25753;-77
2023/04/29 05:53:59;;;;;;;18.40;9.40;;;;;;;;;;107088;1274;24390;-80
2023/04/29 05:56:26;;;;;;;19.60;10.40;;;;;;;;;;106942;1274;25430;-78
2023/04/29 05:58:54;;;;;;;21.90;10.90;;;;;;;;;;106914;1257;25446;-81
2023/04/29 06:01:22;;;;;;;25.70;12.70;;;;;;;;;;107059;1274;22757;-83
2023/04/29 06:04:15;;;;;;;25.40;14.10;;;;;;;;;;106315;1280;24737;-82
2023/04/29 06:07:03;;;;;;;25.10;14.70;;;;;;;;;;106383;1280;24160;-82
2023/04/29 06:09:49;;;;;;;24.50;13.60;;;;;;;;;;106708;1260;22650;-80
2023/04/29 06:12:16;;;;;;;30.70;14.60;;;;;;;;;;106734;1280;25553;-81
2023/04/29 06:14:45;;;;;;;25.90;13.30;;;;;;;;;;106562;1280;24224;-80
2023/04/29 06:17:13;;;;;;;26.30;13.30;;;;;;;;;;106645;1280;25325;-82
2023/04/29 06:19:43;;;;;;;23.50;11.70;;;;;;;;;;106731;1262;25341;-83
2023/04/29 06:22:13;;;;;;;26.30;11.60;;;;;;;;;;106529;1280;23238;-83
2023/04/29 06:25:00;;;;;;;26.30;12.10;;;;;;;;;;106784;1280;22579;-81
2023/04/29 06:27:48;;;;;;;25.30;12.00;;;;;;;;;;106779;1256;24346;-79
2023/04/29 06:30:16;;;;;;;24.40;12.60;;;;;;;;;;107148;1270;23266;-78
2023/04/29 06:32:46;;;;;;;24.10;13.90;;;;;;;;;;107181;1272;23867;-84
2023/04/29 06:35:13;;;;;;;24.30;13.50;;;;;;;;;;107193;1274;25335;-83
2023/04/29 06:37:49;;;;;;;24.50;13.00;;;;;;;;;;107086;1274;22762;-80
2023/04/29 06:40:52;;;;;;;25.30;14.30;;;;;;;;;;106877;1256;26475;-79
2023/04/29 06:43:51;;;;;;;23.40;12.30;;;;;;;;;;106888;1274;24225;-78
2023/04/29 06:46:56;;;;;;;17.90;10.80;;;;;;;;;;106809;1269;22526;-79
2023/04/29 06:49:44;;;;;;;22.50;11.40;;;;;;;;;;107032;1278;25223;-82
2023/04/29 06:56:16;;;;;;;20.70;9.90;;;;;;;;;;107081;1274;22540;-78
2023/04/29 06:58:43;;;;;;;20.10;11.80;;;;;;;;;;106946;1274;24196;-82
2023/04/29 07:01:10;;;;;;;23.10;13.30;;;;;;;;;;107061;1258;24192;-79
2023/04/29 07:03:37;;;;;;;24.20;14.20;;;;;;;;;;107130;1274;25343;-79
2023/04/29 07:06:05;;;;;;;22.90;13.40;;;;;;;;;;107121;1274;22479;-84
2023/04/29 07:08:32;;;;;;;24.50;12.10;;;;;;;;;;107447;1274;23122;-82
2023/04/29 07:10:59;;;;;;;24.70;11.60;;;;;;;;;;107322;1254;22516;-85
2023/04/29 07:13:26;;;;;;;20.50;10.80;;;;;;;;;;107117;1274;22529;-85
2023/04/29 07:15:53;;;;;;;25.90;11.90;;;;;;;;;;107156;1274;22659;-78
2023/04/29 07:18:22;;;;;;;21.90;12.10;;;;;;;;;;107295;1274;23523;-81
2023/04/29 07:20:51;;;;;;;23.40;12.80;;;;;;;;;;107115;1257;23346;-82
2023/04/29 07:23:18;;;;;;;26.80;12.60;;;;;;;;;;107114;1274;23374;-81
2023/04/29 07:25:46;;;;;;;24.00;13.10;;;;;;;;;;106879;1274;22523;-85
2023/04/29 07:28:31;;;;;;;;;;;;;;;;;;;;;
2023/04/29 07:31:46;;;;;;;18.60;10.20;;;;;;;;;;106762;1260;22548;-84
2023/04/29 07:34:13;;;;;;;19.80;10.10;;;;;;;;;;106668;1279;22530;-83
2023/04/29 07:36:40;;;;;;;18.80;10.10;;;;;;;;;;106785;1256;24200;-85
2023/04/29 07:39:11;;;;;;;16.90;9.10;;;;;;;;;;106791;1279;22772;-82
2023/04/29 07:41:43;;;;;;;17.00;9.40;;;;;;;;;;106700;1279;22550;-83
2023/04/29 07:44:10;;;;;;;16.80;9.20;;;;;;;;;;106820;1279;25340;-80
2023/04/29 07:46:37;;;;;;;19.20;9.60;;;;;;;;;;106654;1279;22545;-79
2023/04/29 07:49:05;;;;;;;18.70;9.90;;;;;;;;;;106773;1275;22671;-84
2023/04/29 07:51:33;;;;;;;19.20;10.30;;;;;;;;;;106671;1261;25318;-83
2023/04/29 07:54:00;;;;;;;21.50;11.30;;;;;;;;;;106675;1280;23879;-80
2023/04/29 07:56:27;;;;;;;18.50;10.30;;;;;;;;;;106675;1280;22517;-79
2023/04/29 07:58:54;;;;;;;17.30;8.90;;;;;;;;;;106587;1280;23901;-85
2023/04/29 08:01:21;;;;;;;20.60;10.00;;;;;;;;;;106639;1260;22673;-80
2023/04/29 08:03:49;;;;;;;29.30;14.30;;;;;;;;;;106769;1279;24411;-79
2023/04/29 08:06:24;;;;;;;32.50;16.30;;;;;;;;;;106757;1279;22535;-81
2023/04/29 08:13:28;;;;;;;18.30;7.40;;;;;;;;;;106693;1270;22643;-81
2023/04/29 08:15:55;;;;;;;15.90;7.30;;;;;;;;;;106681;1279;22523;-81
2023/04/29 08:18:22;;;;;;;13.30;6.80;;;;;;;;;;106759;1279;22658;-80
2023/04/29 08:20:59;;;;;;;11.50;5.90;;;;;;;;;;106788;1279;22579;-84
2023/04/29 08:23:26;;;;;;;9.50;4.70;;;;;;;;;;107062;1260;22618;-79
2023/04/29 08:25:54;;;;;;;9.90;4.60;;;;;;;;;;107106;1273;25362;-83
2023/04/29 08:28:21;;;;;;;9.90;4.70;;;;;;;;;;107249;1273;22569;-85
2023/04/29 08:30:48;;;;;;;9.20;4.00;;;;;;;;;;107237;1273;25464;-80
2023/04/29 08:33:15;;;;;;;12.70;4.40;;;;;;;;;;107225;1257;25439;-80
2023/04/29 08:35:42;;;;;;;8.40;4.10;;;;;;;;;;107161;1273;22599;-85
2023/04/29 08:38:08;;;;;;;9.50;4.50;;;;;;;;;;107185;1273;22595;-82
2023/04/29 08:40:40;;;;;;;10.90;4.10;;;;;;;;;;107166;1273;23884;-84
2023/04/29 08:43:08;;;;;;;7.40;4.00;;;;;;;;;;107289;1253;22513;-77
2023/04/29 08:45:36;;;;;;;8.20;4.20;;;;;;;;;;107218;1273;24189;-80
2023/04/29 08:48:04;;;;;;;8.30;3.90;;;;;;;;;;107211;1273;22505;-79
2023/04/29 08:50:35;;;;;;;8.60;4.30;;;;;;;;;;106963;1273;22521;-84
2023/04/29 08:53:09;;;;;;;10.00;4.00;;;;;;;;;;107136;1254;24220;-83
2023/04/29 08:55:45;;;;;;;11.00;4.00;;;;;;;;;;107243;1273;25468;-79
2023/04/29 08:58:15;;;;;;;12.40;4.10;;;;;;;;;;106929;1275;24176;-82
2023/04/29 09:00:42;;;;;;;8.40;3.90;;;;;;;;;;107133;1274;24531;-82
2023/04/29 09:03:28;;;;;;;8.00;4.00;;;;;;;;;;107248;1254;22813;-79
2023/04/29 09:05:58;;;;;;;6.70;3.10;;;;;;;;;;107150;1273;22517;-81
2023/04/29 09:08:33;;;;;;;7.00;3.30;;;;;;;;;;107155;1273;22525;-84
2023/04/29 09:11:00;;;;;;;9.50;4.00;;;;;;;;;;107134;1274;22521;-84
2023/04/29 09:13:30;;;;;;;10.10;4.40;;;;;;;;;;107130;1254;22482;-79
2023/04/29 09:15:58;;;;;;;7.70;3.90;;;;;;;;;;107181;1273;22533;-79
2023/04/29 09:18:43;;;;;;;8.40;4.20;;;;;;;;;;106900;1275;24185;-81
2023/04/29 09:21:14;;;;;;;7.60;2.80;;;;;;;;;;107177;1272;22539;-76
2023/04/29 09:23:41;;;;;;;7.60;2.70;;;;;;;;;;107028;1256;23864;-80
2023/04/29 09:26:08;;;;;;;4.30;1.90;;;;;;;;;;107167;1269;22521;-76
2023/04/29 09:35:41;;;;;;;12.20;5.80;;;;;;;;;;103737;1297;545298;-80
2023/04/29 09:38:15;;;;;;;11.30;5.20;;;;;;;;;;106034;1290;22538;-77
2023/04/29 09:40:42;;;;;;;12.40;6.00;;;;;;;;;;106279;1287;22663;-76
2023/04/29 09:43:14;;;;;;;14.50;5.80;;;;;;;;;;105733;1290;22670;-79
2023/04/29 09:45:43;;;;;;;14.00;6.00;;;;;;;;;;105924;1273;25353;-81
2023/04/29 09:48:10;;;;;;;10.80;4.60;;;;;;;;;;104138;1290;2839181;-78
2023/04/29 09:50:38;;;;;;;11.40;4.70;;;;;;;;;;106136;1287;25543;-79
2023/04/29 09:53:07;;;;;;;8.60;4.70;;;;;;;;;;106162;1285;24266;-83
2023/04/29 09:55:35;;;;;;;9.70;4.90;;;;;;;;;;106157;1268;22531;-77
2023/04/29 09:58:02;;;;;;;8.50;4.00;;;;;;;;;;106163;1288;25589;-83
2023/04/29 10:00:30;;;;;;;11.00;5.00;;;;;;;;;;106091;1269;22548;-82
2023/04/29 10:02:58;;;;;;;10.00;4.20;;;;;;;;;;106132;1288;22533;-84
2023/04/29 10:05:26;;;;;;;10.20;5.20;;;;;;;;;;106876;1260;22489;-84
2023/04/29 10:07:53;;;;;;;7.50;4.10;;;;;;;;;;106910;1276;23242;-78
2023/04/29 10:10:20;;;;;;;8.90;3.70;;;;;;;;;;106819;1276;22535;-81
2023/04/29 10:12:51;;;;;;;8.20;3.20;;;;;;;;;;106926;1276;22605;-81
2023/04/29 10:15:31;;;;;;;6.80;3.10;;;;;;;;;;106688;1253;22536;-79
2023/04/29 10:18:11;;;;;;;7.70;3.80;;;;;;;;;;106538;1276;25335;-78
2023/04/29 10:20:40;;;;;;;7.60;3.90;;;;;;;;;;106768;1276;22771;-81
2023/04/29 10:23:07;;;;;;;8.60;3.80;;;;;;;;;;106903;1274;22523;-82
2023/04/29 10:25:34;;;;;;;7.80;3.50;;;;;;;;;;106793;1276;24199;-79
2023/04/29 10:28:03;;;;;;;7.50;3.50;;;;;;;;;;106918;1275;25369;-81
2023/04/29 10:30:30;;;;;;;7.50;3.50;;;;;;;;;;106916;1276;22499;-84
2023/04/29 10:32:59;;;;;;;8.70;3.60;;;;;;;;;;106926;1266;24361;-81
2023/04/29 10:35:25;;;;;;;6.90;3.30;;;;;;;;;;106896;1276;24257;-77
2023/04/29 10:37:53;;;;;;;6.70;2.90;;;;;;;;;;106789;1261;25412;-77
2023/04/29 10:40:20;;;;;;;7.50;2.90;;;;;;;;;;106718;1273;22610;-77
2023/04/29 10:42:46;;;;;;;6.20;2.50;;;;;;;;;;106752;1274;25285;-76
2023/04/29 10:45:17;;;;;;;4.40;1.80;;;;;;;;;;106756;1276;25337;-77
2023/04/29 10:48:07;;;;;;;4.50;1.60;;;;;;;;;;106858;1259;24028;-78
2023/04/29 10:50:41;;;;;;;4.60;1.70;;;;;;;;;;106765;1276;22529;-78
2023/04/29 10:53:11;;;;;;;7.50;2.40;;;;;;;;;;107018;1273;25220;-81
2023/04/29 10:55:38;;;;;;;6.90;2.30;;;;;;;;;;106990;1263;22499;-80
2023/04/29 10:58:05;;;;;;;4.30;1.50;;;;;;;;;;106880;1258;22532;-78
2023/04/29 11:00:33;;;;;;;4.60;1.70;;;;;;;;;;106942;1276;22591;-78
2023/04/29 11:03:01;;;;;;;5.30;1.70;;;;;;;;;;106903;1277;22631;-81
2023/04/29 11:05:35;;;;;;;4.40;1.70;;;;;;;;;;106871;1276;22832;-79
2023/04/29 11:08:09;;;;;;;3.80;1.50;;;;;;;;;;106859;1259;25548;-76
2023/04/29 11:10:37;;;;;;;5.60;1.70;;;;;;;;;;106834;1277;26150;-77
2023/04/29 11:13:21;;;;;;;4.00;1.20;;;;;;;;;;106743;1269;25360;-76
2023/04/29 11:15:50;;;;;;;4.40;1.70;;;;;;;;;;106679;1269;22531;-79
2023/04/29 11:18:17;;;;;;;3.90;1.40;;;;;;;;;;106908;1257;23310;-79
2023/04/29 11:21:03;;;;;;;2.50;1.00;;;;;;;;;;106901;1270;25488;-78
2023/04/29 11:30:28;;;;;;;5.70;1.60;;;;;;;;;;104007;1292;544974;-81
2023/04/29 11:32:57;;;;;;;7.20;1.90;;;;;;;;;;106272;1285;25294;-81
2023/04/29 11:35:24;;;;;;;4.50;1.70;;;;;;;;;;106250;1280;25335;-81
2023/04/29 11:37:51;;;;;;;3.30;1.30;;;;;;;;;;106027;1287;22779;-81
2023/04/29 11:40:18;;;;;;;3.60;1.30;;;;;;;;;;105993;1281;25272;-79
2023/04/29 11:42:47;;;;;;;3.00;1.30;;;;;;;;;;106011;1285;25531;-82
2023/04/29 11:45:16;;;;;;;3.00;1.20;;;;;;;;;;104214;1286;2917660;-78
2023/04/29 11:47:46;;;;;;;4.60;1.50;;;;;;;;;;106386;1286;25420;-77
2023/04/29 11:50:15;;;;;;;3.90;1.40;;;;;;;;;;106375;1266;22537;-79
2023/04/29 11:52:43;;;;;;;4.10;1.50;;;;;;;;;;106422;1286;24253;-79
2023/04/29 11:55:10;;;;;;;3.50;1.40;;;;;;;;;;106228;1286;24167;-83
2023/04/29 11:57:39;;;;;;;4.60;1.50;;;;;;;;;;106384;1286;22868;-83
2023/04/29 12:00:13;;;;;;;2.70;1.10;;;;;;;;;;106478;1273;22534;-82
2023/04/29 12:02:43;;;;;;;2.70;1.00;;;;;;;;;;106437;1286;22538;-82
2023/04/29 12:05:11;;;;;;;1.80;0.80;;;;;;;;;;106418;1286;22565;-82
2023/04/29 12:07:38;;;;;;;3.60;1.30;;;;;;;;;;106183;1286;22637;-84
2023/04/29 12:10:09;;;;;;;3.00;1.10;;;;;;;;;;106373;1270;23941;-82
2023/04/29 12:12:39;;;;;;;2.00;0.70;;;;;;;;;;106103;1286;22545;-83
2023/04/29 12:15:07;;;;;;;3.60;1.00;;;;;;;;;;106413;1286;22742;-85
2023/04/29 12:17:33;;;;;;;4.00;1.30;;;;;;;;;;106388;1286;24208;-81
2023/04/29 12:20:00;;;;;;;4.30;1.40;;;;;;;;;;106795;1279;22643;-75
2023/04/29 12:22:31;;;;;;;3.70;1.40;;;;;;;;;;106438;1265;25476;-82
2023/04/29 12:24:58;;;;;;;3.50;1.40;;;;;;;;;;106812;1279;22530;-79
2023/04/29 12:27:25;;;;;;;5.60;2.00;;;;;;;;;;106779;1279;24375;-78
2023/04/29 12:29:52;;;;;;;5.40;2.50;;;;;;;;;;106787;1279;25321;-77
2023/04/29 12:32:22;;;;;;;5.80;2.70;;;;;;;;;;106827;1261;24210;-83
2023/04/29 12:34:52;;;;;;;5.90;2.50;;;;;;;;;;106781;1278;22589;-83
2023/04/29 12:37:20;;;;;;;4.50;1.90;;;;;;;;;;106786;1278;24223;-76
2023/04/29 12:39:48;;;;;;;3.50;1.50;;;;;;;;;;106780;1278;23887;-82
2023/04/29 12:42:16;;;;;;;5.10;2.00;;;;;;;;;;106837;1260;24363;-83
2023/04/29 12:44:46;;;;;;;7.60;3.30;;;;;;;;;;106788;1279;22526;-77
2023/04/29 12:47:13;;;;;;;5.30;1.80;;;;;;;;;;106733;1278;25321;-78
2023/04/29 12:49:41;;;;;;;3.70;1.60;;;;;;;;;;107015;1273;22581;-82
2023/04/29 12:52:09;;;;;;;3.90;1.80;;;;;;;;;;106596;1264;22744;-81
2023/04/29 12:54:36;;;;;;;6.60;1.80;;;;;;;;;;107127;1275;22541;-83
2023/04/29 12:57:03;;;;;;;4.10;1.40;;;;;;;;;;106816;1279;22631;-77
2023/04/29 12:59:30;;;;;;;4.50;1.80;;;;;;;;;;106751;1273;25325;-80
2023/04/29 13:01:57;;;;;;;4.20;1.90;;;;;;;;;;106465;1266;24232;-78
2023/04/29 13:04:23;;;;;;;4.20;1.80;;;;;;;;;;106743;1280;22539;-83
2023/04/29 13:06:57;;;;;;;4.30;1.80;;;;;;;;;;106436;1280;22649;-81
2023/04/29 13:09:23;;;;;;;4.20;1.60;;;;;;;;;;106452;1280;22532;-82
2023/04/29 13:11:50;;;;;;;5.80;1.50;;;;;;;;;;106604;1279;25336;-81
2023/04/29 13:14:17;;;;;;;4.00;1.80;;;;;;;;;;106464;1279;22554;-81
2023/04/29 13:16:44;;;;;;;5.50;2.20;;;;;;;;;;106612;1279;22569;-83
2023/04/29 13:19:11;;;;;;;4.10;1.70;;;;;;;;;;106771;1279;22500;-80
2023/04/29 13:21:38;;;;;;;4.70;1.40;;;;;;;;;;106751;1259;22534;-77
2023/04/29 13:24:05;;;;;;;4.30;2.00;;;;;;;;;;106784;1280;22521;-79
2023/04/29 13:26:31;;;;;;;5.40;2.20;;;;;;;;;;106715;1280;23114;-79
2023/04/29 13:28:58;;;;;;;4.60;1.70;;;;;;;;;;106490;1280;22604;-82
2023/04/29 13:31:26;;;;;;;3.70;1.40;;;;;;;;;;106614;1280;24458;-76
2023/04/29 13:33:54;;;;;;;4.30;1.70;;;;;;;;;;106808;1261;24264;-78
2023/04/29 13:36:21;;;;;;;3.40;1.60;;;;;;;;;;106815;1279;25353;-81
2023/04/29 13:38:47;;;;;;;2.80;1.40;;;;;;;;;;106979;1272;22566;-79
2023/04/29 13:41:14;;;;;;;3.60;1.40;;;;;;;;;;106740;1278;22523;-77
2023/04/29 13:43:41;;;;;;;3.80;1.40;;;;;;;;;;106692;1262;25303;-82
2023/04/29 13:46:08;;;;;;;5.70;2.20;;;;;;;;;;106644;1279;22517;-77
2023/04/29 13:48:35;;;;;;;6.60;2.70;;;;;;;;;;107022;1279;22581;-82
2023/04/29 13:51:02;;;;;;;6.10;2.50;;;;;;;;;;106785;1279;22554;-84
2023/04/29 13:53:29;;;;;;;7.80;1.80;;;;;;;;;;106769;1263;22990;-84
2023/04/29 13:55:56;;;;;;;6.60;1.90;;;;;;;;;;106834;1279;25494;-93
2023/04/29 13:58:22;;;;;;;6.70;1.60;;;;;;;;;;106749;1279;22549;-80
2023/04/29 14:00:49;;;;;;;5.70;2.20;;;;;;;;;;106728;1279;22530;-84
2023/04/29 14:03:17;;;;;;;3.70;1.30;;;;;;;;;;106752;1278;24367;-78
2023/04/29 14:05:44;;;;;;;4.20;1.50;;;;;;;;;;106938;1260;25065;-82
2023/04/29 14:08:11;;;;;;;5.80;2.10;;;;;;;;;;106873;1275;22486;-78
2023/04/29 14:10:37;;;;;;;8.50;3.90;;;;;;;;;;107058;1275;22796;-84
2023/04/29 14:13:04;;;;;;;7.70;3.40;;;;;;;;;;106891;1268;24253;-82
2023/04/29 14:15:31;;;;;;;7.50;3.10;;;;;;;;;;106964;1276;22736;-86
2023/04/29 14:17:58;;;;;;;9.00;3.40;;;;;;;;;;106889;1276;22575;-80
2023/04/29 14:20:24;;;;;;;9.00;3.90;;;;;;;;;;106894;1276;22520;-84
2023/04/29 14:22:51;;;;;;;7.30;3.10;;;;;;;;;;106979;1255;22617;-83
2023/04/29 14:25:18;;;;;;;5.90;2.20;;;;;;;;;;106963;1275;25325;-83
2023/04/29 14:27:48;;;;;;;6.30;2.60;;;;;;;;;;107144;1275;23870;-81
2023/04/29 14:30:15;;;;;;;7.30;2.50;;;;;;;;;;107124;1275;22628;-79
2023/04/29 14:32:43;;;;;;;6.50;2.50;;;;;;;;;;106947;1275;23631;-78
2023/04/29 14:35:12;;;;;;;5.80;2.20;;;;;;;;;;106887;1260;22534;-85
2023/04/29 14:37:39;;;;;;;7.30;2.90;;;;;;;;;;106908;1272;23244;-81
2023/04/29 14:40:06;;;;;;;4.90;2.40;;;;;;;;;;106966;1276;24380;-81
2023/04/29 14:42:33;;;;;;;8.20;3.90;;;;;;;;;;107060;1276;22642;-79
2023/04/29 14:45:00;;;;;;;7.70;3.50;;;;;;;;;;106865;1259;25350;-78
2023/04/29 14:47:29;;;;;;;7.90;4.30;;;;;;;;;;107068;1275;25265;-80
2023/04/29 14:49:56;;;;;;;8.20;4.60;;;;;;;;;;107095;1275;25004;-81
2023/04/29 14:52:23;;;;;;;9.20;5.30;;;;;;;;;;107174;1275;22537;-80
2023/04/29 14:54:50;;;;;;;9.20;5.10;;;;;;;;;;107033;1276;25505;-85
2023/04/29 14:57:17;;;;;;;9.90;5.20;;;;;;;;;;106823;1276;25361;-78
2023/04/29 14:59:44;;;;;;;8.50;4.80;;;;;;;;;;106868;1276;22579;-84
2023/04/29 15:02:20;;;;;;;10.50;5.90;;;;;;;;;;106997;1276;22528;-84